Time;durP1;ratioP1;P1;durP2;ratioP2;P2;SDS_P1;SDS_P2;PMS_P1;PMS_P2;Temp;Humidity;BMP_temperature;BMP_pressure;BME280_temperature;BME280_humidity;BME280_pressure;Samples;Min_cycle;Max_cycle;Signal;HPM_P1;HPM_P2
2022/08/15 00:00:20;;;;;;;8.13;7.32;;;;;;;19.65;90.64;100468.19;5052463;28;20442;-77
2022/08/15 00:02:47;;;;;;;8.35;7.03;;;;;;;19.60;91.49;100464.47;5052826;28;20037;-77
2022/08/15 00:05:17;;;;;;;10.02;7.78;;;;;;;19.56;91.95;100461.38;5052698;28;20112;-77
2022/08/15 00:07:43;;;;;;;8.88;7.97;;;;;;;19.52;93.12;100460.94;5052745;28;20025;-77
2022/08/15 00:10:10;;;;;;;9.30;8.18;;;;;;;19.49;92.90;100471.31;5052367;28;20060;-77
2022/08/15 00:12:37;;;;;;;9.25;8.35;;;;;;;19.44;93.33;100458.44;5052505;28;20071;-76
2022/08/15 00:15:11;;;;;;;9.05;8.15;;;;;;;19.42;93.63;100467.78;5053058;28;20112;-78
2022/08/15 00:17:37;;;;;;;8.95;8.05;;;;;;;19.39;94.15;100460.91;5053222;28;20028;-76
2022/08/15 00:20:04;;;;;;;14.75;9.68;;;;;;;19.37;95.02;100449.50;5052802;28;20037;-76
2022/08/15 00:22:30;;;;;;;10.10;8.63;;;;;;;19.35;96.85;100474.00;5052529;28;20530;-76
2022/08/15 00:24:55;;;;;;;11.55;10.35;;;;;;;19.41;98.18;100461.56;5053236;28;20170;-76
2022/08/15 00:27:24;;;;;;;12.05;10.85;;;;;;;19.49;98.40;100471.31;5052566;28;20029;-76
2022/08/15 00:29:51;;;;;;;9.90;8.90;;;;;;;19.57;97.36;100468.41;5052496;28;20036;-76
2022/08/15 00:32:19;;;;;;;11.57;8.52;;;;;;;19.65;96.53;100462.81;5052293;28;20036;-76
2022/08/15 00:34:45;;;;;;;12.35;9.15;;;;;;;19.69;97.04;100472.16;5052480;28;20063;-77
2022/08/15 00:37:10;;;;;;;9.52;8.55;;;;;;;19.72;96.17;100462.78;5052597;28;20111;-77
2022/08/15 00:39:36;;;;;;;10.38;8.93;;;;;;;19.77;96.41;100460.31;5052682;28;20167;-77
2022/08/15 00:42:04;;;;;;;10.23;8.90;;;;;;;19.82;96.16;100457.81;5056304;28;20450;-75
2022/08/15 00:44:40;;;;;;;9.23;7.40;;;;;;;19.83;94.80;100459.50;5055655;28;20086;-76
2022/08/15 00:47:12;;;;;;;8.27;7.47;;;;;;;19.82;94.65;100457.00;5056446;28;20040;-76
2022/08/15 00:49:38;;;;;;;9.15;8.32;;;;;;;19.80;96.17;100457.22;5056317;28;20111;-78
2022/08/15 00:52:13;;;;;;;9.43;7.72;;;;;;;19.74;95.94;100458.03;5056008;28;20111;-77
2022/08/15 00:54:44;;;;;;;8.35;7.55;;;;;;;19.69;95.49;100437.06;5056239;28;20033;-77
2022/08/15 00:57:18;;;;;;;9.23;7.95;;;;;;;19.67;96.73;100447.22;5056048;28;20025;-78
2022/08/15 00:59:50;;;;;;;9.13;8.23;;;;;;;19.63;97.68;100445.16;5056310;28;20033;-77
2022/08/15 01:02:19;;;;;;;8.88;7.63;;;;;;;19.56;96.67;100443.28;5055991;28;20517;-77
2022/08/15 01:04:46;;;;;;;9.00;8.05;;;;;;;19.52;97.27;100446.63;5055632;28;20107;-77
2022/08/15 01:07:12;;;;;;;9.10;8.05;;;;;;;19.49;97.39;100449.72;5054555;28;20032;-76
2022/08/15 01:09:38;;;;;;;9.05;7.80;;;;;;;19.44;97.88;100450.34;5055711;28;20033;-77
2022/08/15 01:12:13;;;;;;;8.88;8.07;;;;;;;19.39;98.88;100447.44;5056033;28;20124;-77
2022/08/15 01:14:43;;;;;;;9.98;8.27;;;;;;;19.35;99.14;100444.34;5056679;28;20086;-77
2022/08/15 01:17:09;;;;;;;9.27;8.03;;;;;;;19.36;99.16;100445.16;5055669;28;20530;-77
2022/08/15 01:20:04;;;;;;;9.73;8.18;;;;;;;19.42;99.18;100449.72;5055383;28;20029;-77
2022/08/15 01:22:58;;;;;;;9.35;8.45;;;;;;;19.50;99.09;100449.53;5026007;28;20067;-77
2022/08/15 01:26:02;;;;;;;9.40;8.40;;;;;;;19.66;98.39;100444.72;5054403;28;20443;-77
2022/08/15 01:28:32;;;;;;;9.13;8.32;;;;;;;19.83;96.98;100448.69;4974285;28;20507;-77
2022/08/15 01:31:01;;;;;;;9.38;7.80;;;;;;;20.01;95.86;100450.75;5042499;28;20052;-77
2022/08/15 01:33:28;;;;;;;9.27;8.25;;;;;;;20.17;93.90;100438.66;5055243;28;20458;-77
2022/08/15 01:35:54;;;;;;;12.35;8.07;;;;;;;20.30;91.88;100432.38;5055358;28;20048;-77
2022/08/15 01:38:30;;;;;;;11.20;8.15;;;;;;;20.44;89.50;100423.19;5055225;28;20033;-78
2022/08/15 01:41:02;;;;;;;8.48;7.38;;;;;;;20.61;87.71;100430.81;5055078;28;20540;-77
2022/08/15 01:43:33;;;;;;;8.13;7.32;;;;;;;20.72;85.36;100423.91;5055315;28;20144;-77
2022/08/15 01:46:04;;;;;;;8.00;6.38;;;;;;;20.85;82.49;100423.03;5055235;28;20466;-78
2022/08/15 01:48:34;;;;;;;10.77;6.55;;;;;;;20.92;81.44;100418.41;5055706;28;20029;-78
2022/08/15 01:51:06;;;;;;;8.20;5.90;;;;;;;20.97;80.80;100426.69;5054979;28;20463;-78
2022/08/15 01:53:39;;;;;;;7.75;5.45;;;;;;;21.00;79.69;100426.25;5054988;28;20037;-78
2022/08/15 01:56:27;;;;;;;6.72;5.50;;;;;;;21.03;78.80;100423.09;5055721;28;20410;-78
2022/08/15 01:58:53;;;;;;;8.32;5.45;;;;;;;21.06;78.01;100419.97;5043954;28;20148;-78
2022/08/15 02:01:34;;;;;;;5.32;4.70;;;;;;;21.06;77.45;100414.53;5054892;28;20457;-78
2022/08/15 02:04:00;;;;;;;10.18;5.20;;;;;;;21.06;76.95;100411.03;5055266;28;20350;-79
2022/08/15 02:06:29;;;;;;;7.63;4.75;;;;;;;21.02;77.23;100409.78;5054854;28;20104;-78
2022/08/15 02:08:55;;;;;;;9.38;4.68;;;;;;;21.01;77.27;100408.16;5053631;28;20219;-78
2022/08/15 02:11:24;;;;;;;12.30;4.38;;;;;;;21.01;76.77;100408.16;5054748;28;20036;-77
2022/08/15 02:13:54;;;;;;;6.07;4.60;;;;;;;21.01;76.22;100398.16;5054323;28;20029;-77
2022/08/15 02:16:22;;;;;;;4.73;4.33;;;;;;;21.01;76.09;100408.16;5054901;28;20029;-78
2022/08/15 02:18:48;;;;;;;6.18;4.75;;;;;;;20.95;76.43;100413.38;5054606;28;20346;-77
2022/08/15 02:21:14;;;;;;;8.65;4.75;;;;;;;20.89;77.18;100410.72;5054579;28;20029;-78
2022/08/15 02:23:39;;;;;;;6.30;4.43;;;;;;;20.85;77.32;100417.63;5053058;28;20029;-78
2022/08/15 02:26:07;;;;;;;5.63;3.78;;;;;;;20.90;76.02;100426.75;5054920;28;20060;-78
2022/08/15 02:28:33;;;;;;;8.05;4.32;;;;;;;20.98;75.22;100416.72;5053304;28;20470;-76
2022/08/15 02:30:58;;;;;;;7.82;3.90;;;;;;;21.04;74.97;100430.19;5054368;28;20052;-77
2022/08/15 02:33:24;;;;;;;6.47;4.18;;;;;;;21.04;75.17;100432.88;5053043;28;20065;-81
2022/08/15 02:35:51;;;;;;;7.25;4.15;;;;;;;21.04;75.44;100418.53;5054273;28;20069;-76
2022/08/15 02:38:17;;;;;;;8.88;4.10;;;;;;;21.04;75.40;100424.75;5053918;28;20029;-78
2022/08/15 02:40:42;;;;;;;8.77;3.80;;;;;;;21.01;76.12;100421.69;5053712;28;20067;-78
2022/08/15 02:43:10;;;;;;;8.52;4.65;;;;;;;20.96;76.53;100422.34;5053298;28;20048;-77
2022/08/15 02:45:37;;;;;;;6.72;4.07;;;;;;;20.92;76.98;100415.69;5053348;28;20029;-78
2022/08/15 02:48:08;;;;;;;9.93;4.40;;;;;;;20.91;76.66;100419.44;5053861;28;20039;-77
2022/08/15 02:50:35;;;;;;;8.25;4.22;;;;;;;20.92;76.79;100415.69;5053632;28;20394;-78
2022/08/15 02:53:15;;;;;;;15.30;4.35;;;;;;;20.92;76.37;100404.88;5053676;28;20036;-77
2022/08/15 02:55:43;;;;;;;7.85;3.97;;;;;;;20.95;76.44;100401.75;5053631;28;20024;-78
2022/08/15 02:58:10;;;;;;;12.40;5.00;;;;;;;20.98;76.22;100408.59;5053883;28;20056;-77
2022/08/15 03:00:36;;;;;;;14.20;4.00;;;;;;;20.98;76.40;100400.50;5054073;28;20033;-77
2022/08/15 03:03:07;;;;;;;4.38;3.42;;;;;;;21.00;75.37;100401.09;5052696;28;20039;-78
2022/08/15 03:05:36;;;;;;;7.50;3.53;;;;;;;21.01;74.76;100403.56;5054184;28;20087;-76
2022/08/15 03:08:02;;;;;;;7.55;4.07;;;;;;;21.06;74.44;100402.91;5054232;28;20032;-77
2022/08/15 03:10:28;;;;;;;8.23;4.20;;;;;;;21.07;74.23;100402.69;5053852;28;20103;-76
2022/08/15 03:13:06;;;;;;;7.00;3.70;;;;;;;21.07;74.39;100401.88;5053799;28;20067;-77
2022/08/15 03:15:38;;;;;;;12.93;3.95;;;;;;;21.02;73.85;100402.53;5053647;28;20056;-77
2022/08/15 03:18:04;;;;;;;8.80;3.28;;;;;;;21.01;74.00;100410.88;5053278;28;20028;-77
2022/08/15 03:20:30;;;;;;;8.38;3.63;;;;;;;20.98;74.04;100401.31;5053810;28;20493;-77
2022/08/15 03:22:56;;;;;;;8.63;3.88;;;;;;;20.97;73.70;100399.63;5053710;28;20374;-77
2022/08/15 03:25:24;;;;;;;6.60;4.03;;;;;;;20.96;73.27;100401.53;5053461;28;20033;-78
2022/08/15 03:27:49;;;;;;;5.80;4.07;;;;;;;20.98;73.16;100397.78;5053554;28;20035;-78
2022/08/15 03:30:16;;;;;;;7.53;3.63;;;;;;;20.99;73.08;100391.31;5053856;28;20441;-77
2022/08/15 03:32:51;;;;;;;6.45;3.78;;;;;;;20.98;72.71;100387.78;5053336;28;20116;-78
2022/08/15 03:35:20;;;;;;;4.70;3.60;;;;;;;20.99;72.38;100375.09;5052719;28;20029;-78
2022/08/15 03:37:46;;;;;;;7.05;3.80;;;;;;;20.99;72.20;100378.63;5053144;28;20029;-78
2022/08/15 03:40:12;;;;;;;6.45;3.90;;;;;;;20.95;72.47;100375.53;5053022;28;20029;-78
2022/08/15 03:42:38;;;;;;;6.50;3.40;;;;;;;20.90;73.31;100375.38;5052790;28;20060;-78
2022/08/15 03:45:09;;;;;;;5.85;3.90;;;;;;;20.81;74.00;100368.56;5053026;28;20039;-77
2022/08/15 03:47:35;;;;;;;9.95;4.13;;;;;;;20.72;74.04;100373.41;5053616;28;20033;-78
2022/08/15 03:50:01;;;;;;;11.05;4.07;;;;;;;20.67;74.50;100384.03;5052447;28;20087;-77
2022/08/15 03:52:26;;;;;;;8.55;3.95;;;;;;;20.60;75.73;100392.16;5052985;28;20025;-77
2022/08/15 03:54:51;;;;;;;8.50;4.53;;;;;;;20.54;76.08;100397.56;5052933;28;20033;-77
2022/08/15 03:57:17;;;;;;;9.73;4.50;;;;;;;20.50;76.61;100401.78;5052852;28;20116;-77
2022/08/15 03:59:43;;;;;;;10.98;4.53;;;;;;;20.47;76.76;100402.19;5052817;28;20091;-77
2022/08/15 04:02:10;;;;;;;11.60;4.47;;;;;;;20.42;78.09;100406.38;5052648;28;20028;-77
2022/08/15 04:04:36;;;;;;;5.45;4.50;;;;;;;20.39;78.30;100411.38;5053106;28;20033;-82
2022/08/15 04:07:03;;;;;;;6.35;4.47;;;;;;;20.34;78.29;100420.09;5052106;28;20097;-77
2022/08/15 04:09:29;;;;;;;13.00;4.75;;;;;;;20.31;79.01;100430.53;5052685;28;20052;-77
2022/08/15 04:11:55;;;;;;;9.63;4.50;;;;;;;20.28;78.69;100439.06;5051655;28;20033;-78
2022/08/15 04:14:21;;;;;;;9.75;4.80;;;;;;;20.29;78.20;100424.50;5055517;28;20482;-76
2022/08/15 04:16:46;;;;;;;8.57;5.53;;;;;;;20.31;78.92;100407.03;5057286;28;20098;-76
2022/08/15 04:19:15;;;;;;;9.32;5.30;;;;;;;20.34;79.61;100412.00;5056509;28;20471;-76
2022/08/15 04:21:41;;;;;;;9.50;4.70;;;;;;;20.40;80.11;100416.53;5057092;28;20116;-75
2022/08/15 04:24:06;;;;;;;10.10;4.65;;;;;;;20.43;80.21;100420.69;5056654;28;20171;-75
2022/08/15 04:26:34;;;;;;;13.98;4.88;;;;;;;20.40;81.00;100416.53;5056629;28;20033;-75
2022/08/15 04:29:00;;;;;;;8.13;5.18;;;;;;;20.41;80.97;100412.00;5056452;28;20043;-76
2022/08/15 04:31:26;;;;;;;11.48;4.38;;;;;;;20.42;81.67;100425.28;5056427;28;20036;-75
2022/08/15 04:33:51;;;;;;;7.72;4.57;;;;;;;20.40;81.73;100424.66;5055115;28;20052;-76
2022/08/15 04:36:18;;;;;;;11.63;4.55;;;;;;;20.40;81.58;100421.13;5056418;28;20033;-75
2022/08/15 04:38:45;;;;;;;8.10;4.20;;;;;;;20.41;81.41;100420.91;5056387;28;20120;-76
2022/08/15 04:41:12;;;;;;;7.93;4.55;;;;;;;20.41;81.13;100418.22;5056363;28;20036;-76
2022/08/15 04:43:40;;;;;;;6.75;4.45;;;;;;;20.46;81.31;100425.69;5056356;28;20429;-76
2022/08/15 04:46:07;;;;;;;9.55;4.25;;;;;;;20.43;81.98;100428.81;5056299;28;20104;-77
2022/08/15 04:48:32;;;;;;;11.20;4.60;;;;;;;20.37;85.82;100433.19;5056012;28;20487;-77
2022/08/15 04:50:59;;;;;;;7.85;4.20;;;;;;;20.25;86.03;100434.91;5054736;28;20040;-76
2022/08/15 04:53:29;;;;;;;6.93;4.38;;;;;;;20.16;87.38;100444.28;5055826;28;20040;-77
2022/08/15 04:55:55;;;;;;;10.45;4.55;;;;;;;20.08;88.10;100438.06;5056833;28;20033;-74
2022/08/15 04:58:21;;;;;;;7.38;4.68;;;;;;;20.01;88.58;100426.44;5056275;28;20087;-75
2022/08/15 05:00:59;;;;;;;5.97;4.50;;;;;;;19.96;87.55;100414.63;5055986;28;20025;-74
2022/08/15 05:03:25;;;;;;;8.23;4.32;;;;;;;19.93;87.20;100415.03;5056842;28;20443;-74
2022/08/15 05:05:57;;;;;;;12.55;4.70;;;;;;;19.86;88.48;100426.69;5055915;28;20035;-74
2022/08/15 05:08:25;;;;;;;11.90;4.43;;;;;;;19.82;87.81;100430.84;5055949;28;20025;-74
2022/08/15 05:11:00;;;;;;;8.40;4.50;;;;;;;19.75;88.62;100427.31;5055826;28;20043;-74
2022/08/15 05:13:29;;;;;;;7.90;4.43;;;;;;;19.72;87.93;100425.00;5055606;28;20049;-74
2022/08/15 05:15:57;;;;;;;10.70;4.20;;;;;;;19.66;88.02;100413.19;5054523;28;20440;-75
2022/08/15 05:18:23;;;;;;;10.35;4.38;;;;;;;19.64;88.99;100420.66;5056068;28;20029;-75
2022/08/15 05:20:49;;;;;;;8.20;3.80;;;;;;;19.62;88.95;100422.75;5055664;28;20041;-75
2022/08/15 05:23:16;;;;;;;11.48;3.58;;;;;;;19.61;87.11;100420.25;5055769;28;20078;-74
2022/08/15 05:25:45;;;;;;;5.57;3.40;;;;;;;19.64;87.11;100414.44;5054749;28;20036;-74
2022/08/15 05:28:12;;;;;;;8.68;4.05;;;;;;;19.65;87.27;100410.72;5055467;28;20040;-75
2022/08/15 05:30:38;;;;;;;14.05;3.60;;;;;;;19.64;87.37;100417.13;5054293;28;20025;-74
2022/08/15 05:33:08;;;;;;;4.20;3.28;;;;;;;19.62;87.03;100420.06;5055098;28;20044;-76
2022/08/15 05:35:34;;;;;;;8.65;3.50;;;;;;;19.64;87.51;100419.84;5055504;28;20124;-75
2022/08/15 05:38:06;;;;;;;11.63;3.28;;;;;;;19.62;87.19;100421.94;5055253;28;20119;-76
2022/08/15 05:41:00;;;;;;;7.60;3.95;;;;;;;19.62;87.58;100422.75;5055017;28;20116;-76
2022/08/15 05:43:50;;;;;;;7.20;3.30;;;;;;;19.63;88.32;100428.97;5055485;28;20434;-76
2022/08/15 05:46:24;;;;;;;6.35;3.38;;;;;;;19.65;88.05;100440.41;5055194;28;20095;-77
2022/08/15 05:49:09;;;;;;;6.72;3.08;;;;;;;19.67;85.15;100452.63;5055291;28;20082;-81
2022/08/15 05:51:46;;;;;;;8.65;3.15;;;;;;;19.72;84.01;100452.00;5055121;28;20426;-77
2022/08/15 05:54:14;;;;;;;5.88;3.22;;;;;;;19.76;83.61;100461.34;5055436;28;20045;-76
2022/08/15 05:57:12;;;;;;;6.15;3.42;;;;;;;19.80;82.70;100449.13;5054933;28;20029;-77
2022/08/15 05:59:47;;;;;;;9.77;2.90;;;;;;;19.84;81.53;100442.28;5055124;28;20036;-77
2022/08/15 06:02:25;;;;;;;12.90;2.80;;;;;;;19.93;79.68;100442.88;5055128;28;20029;-77
2022/08/15 06:04:58;;;;;;;7.60;2.90;;;;;;;20.02;77.41;100436.22;5055405;28;20029;-78
2022/08/15 06:07:26;;;;;;;6.82;3.15;;;;;;;20.16;76.14;100436.19;5054864;28;20096;-77
2022/08/15 06:09:57;;;;;;;5.90;2.92;;;;;;;20.28;75.88;100439.06;5055211;28;20032;-78
2022/08/15 06:12:28;;;;;;;9.38;4.10;;;;;;;20.38;74.82;100429.44;5054072;28;20458;-78
2022/08/15 06:15:02;;;;;;;5.57;3.03;;;;;;;20.51;73.77;100433.13;5055180;28;20082;-78
2022/08/15 06:17:40;;;;;;;7.40;2.97;;;;;;;20.62;72.44;100424.38;5054849;28;20029;-78
2022/08/15 06:20:09;;;;;;;12.63;3.58;;;;;;;20.74;71.50;100413.72;5054904;28;20025;-78
2022/08/15 06:22:53;;;;;;;9.95;3.40;;;;;;;20.88;71.67;100409.88;5054331;28;20079;-78
2022/08/15 06:25:38;;;;;;;6.15;3.38;;;;;;;21.01;70.11;100408.97;5054875;28;20064;-79
2022/08/15 06:28:14;;;;;;;6.35;2.90;;;;;;;21.11;68.48;100411.22;5054711;28;20028;-81
2022/08/15 06:30:56;;;;;;;5.20;2.75;;;;;;;21.18;67.99;100417.38;5054637;28;20025;-80
2022/08/15 06:33:43;;;;;;;4.90;2.72;;;;;;;21.23;67.40;100408.59;5055189;28;20033;-80
2022/08/15 06:36:17;;;;;;;11.10;3.00;;;;;;;21.28;67.31;100406.91;5054745;28;20040;-80
2022/08/15 06:39:01;;;;;;;7.88;3.10;;;;;;;21.34;67.60;100410.59;5055021;28;20166;-75
2022/08/15 06:41:48;;;;;;;7.53;3.28;;;;;;;21.39;67.82;100423.47;5052372;28;20024;-75
2022/08/15 06:44:15;;;;;;;5.32;2.60;;;;;;;21.43;66.89;100420.09;5053722;28;20049;-76
2022/08/15 06:46:42;;;;;;;6.88;2.90;;;;;;;21.48;66.59;100427.56;5054399;28;20033;-76
2022/08/15 06:49:11;;;;;;;5.40;2.80;;;;;;;21.51;66.28;100418.19;5053808;28;20040;-75
2022/08/15 06:51:38;;;;;;;7.93;2.72;;;;;;;21.56;66.77;100421.09;5054048;28;20478;-75
2022/08/15 06:54:09;;;;;;;5.22;3.05;;;;;;;21.57;67.21;100417.31;5053515;28;20028;-76
2022/08/15 06:56:34;;;;;;;6.05;3.38;;;;;;;21.63;67.65;100429.94;5053937;28;20029;-76
2022/08/15 06:59:38;;;;;;;11.27;3.63;;;;;;;21.66;66.93;100416.81;5052505;28;20040;-77
2022/08/15 07:02:32;;;;;;;4.82;2.80;;;;;;;21.72;68.00;100428.63;5054047;28;20455;-73
2022/08/15 07:05:05;;;;;;;7.57;3.10;;;;;;;21.63;66.96;100432.66;5053632;28;20021;-73
2022/08/15 07:07:54;;;;;;;9.98;3.10;;;;;;;21.57;67.29;100428.13;5053942;28;20032;-76
2022/08/15 07:10:40;;;;;;;7.55;3.30;;;;;;;21.42;67.25;100434.69;5042201;28;20099;-75
2022/08/15 07:13:15;;;;;;;4.43;3.22;;;;;;;21.36;68.69;100434.75;5053467;28;20033;-76
2022/08/15 07:16:00;;;;;;;10.52;3.40;;;;;;;21.28;69.76;100438.53;5053688;28;20378;-75
2022/08/15 07:18:34;;;;;;;6.43;3.10;;;;;;;21.22;70.16;100428.59;5053928;28;20047;-75
2022/08/15 07:21:12;;;;;;;7.38;3.40;;;;;;;21.15;70.87;100444.88;5053148;28;20072;-74
2022/08/15 07:23:59;;;;;;;7.53;3.40;;;;;;;21.13;71.37;100444.28;5053058;28;20029;-74
2022/08/15 07:26:27;;;;;;;7.68;3.75;;;;;;;21.13;71.98;100446.97;5051931;28;20036;-79
2022/08/15 07:28:57;;;;;;;9.57;3.97;;;;;;;21.17;72.21;100448.19;5052816;28;20033;-77
2022/08/15 07:31:31;;;;;;;7.47;3.50;;;;;;;21.24;72.08;100438.16;5053222;28;20071;-76
2022/08/15 07:34:04;;;;;;;8.32;3.30;;;;;;;21.35;71.33;100447.44;5053741;28;20455;-77
2022/08/15 07:36:33;;;;;;;7.38;3.75;;;;;;;21.47;71.32;100440.25;5052667;28;20033;-76
2022/08/15 07:38:59;;;;;;;5.60;3.50;;;;;;;21.58;70.29;100454.97;5053154;28;20378;-77
2022/08/15 07:41:30;;;;;;;5.38;3.20;;;;;;;21.62;70.01;100442.66;5053203;28;20072;-76
2022/08/15 07:44:14;;;;;;;9.13;3.42;;;;;;;21.70;70.49;100446.97;5051698;28;20136;-77
2022/08/15 07:46:48;;;;;;;7.35;3.30;;;;;;;21.76;69.53;100443.38;5053179;28;20067;-76
2022/08/15 07:49:20;;;;;;;9.27;3.33;;;;;;;21.78;69.49;100430.44;5052763;28;20067;-76
2022/08/15 07:52:05;;;;;;;5.63;3.20;;;;;;;21.84;70.46;100420.63;5053085;28;20047;-76
2022/08/15 07:54:52;;;;;;;7.03;3.53;;;;;;;21.95;70.38;100421.75;5053029;28;20033;-78
2022/08/15 07:57:20;;;;;;;5.85;3.53;;;;;;;22.08;69.97;100424.31;5052867;28;20418;-77
2022/08/15 08:00:09;;;;;;;3.65;3.20;;;;;;;22.19;68.68;100431.66;5052823;28;20029;-76
2022/08/15 08:02:41;;;;;;;7.65;3.75;;;;;;;22.28;68.38;100431.38;5052597;28;20078;-79
2022/08/15 08:05:08;;;;;;;5.65;3.45;;;;;;;22.37;67.18;100427.34;5053049;28;20025;-76
2022/08/15 08:07:40;;;;;;;5.65;3.33;;;;;;;22.45;67.39;100405.34;5052598;28;20029;-76
2022/08/15 08:10:27;;;;;;;8.23;3.65;;;;;;;22.56;66.21;100401.03;5051626;28;20475;-78
2022/08/15 08:13:18;;;;;;;7.43;3.58;;;;;;;22.63;67.50;100409.06;5052886;28;20029;-76
2022/08/15 08:15:56;;;;;;;;;;;;;;;22.60;67.80;100417.66;5053563;28;20028;-76
2022/08/15 08:18:42;;;;;;;5.13;3.00;;;;;;;22.64;67.45;100416.97;5053125;28;20373;-74
2022/08/15 08:21:13;;;;;;;4.53;3.42;;;;;;;22.68;67.06;100425.50;5052380;28;20032;-74
2022/08/15 08:23:46;;;;;;;4.78;3.28;;;;;;;22.82;66.67;100415.28;5053311;28;20082;-73
2022/08/15 08:26:27;;;;;;;5.20;3.33;;;;;;;22.92;67.00;100415.56;5051706;28;20053;-79
2022/08/15 08:29:07;;;;;;;3.80;3.00;;;;;;;22.93;66.74;100424.50;5052939;28;20425;-75
2022/08/15 08:31:56;;;;;;;4.47;3.30;;;;;;;22.88;66.40;100425.19;5052901;28;20037;-73
2022/08/15 08:34:50;;;;;;;6.72;3.58;;;;;;;22.80;66.66;100439.91;5052591;28;20075;-75
2022/08/15 08:37:31;;;;;;;7.40;3.58;;;;;;;22.61;67.76;100436.41;5052706;28;20037;-76
2022/08/15 08:43:50;;;;;;;9.73;4.50;;;;;;;22.32;70.74;100446.16;5052848;28;20103;-76
2022/08/15 08:46:48;;;;;;;15.18;4.10;;;;;;;22.09;72.79;100444.91;5052955;28;20029;-76
2022/08/15 08:49:33;;;;;;;6.15;4.00;;;;;;;21.92;74.63;100454.69;5052891;28;20029;-75
2022/08/15 08:52:38;;;;;;;10.98;4.90;;;;;;;21.77;76.06;100453.16;5052655;28;20032;-75
2022/08/15 08:55:08;;;;;;;7.55;4.20;;;;;;;21.63;78.11;100459.72;5036592;28;20052;-75
2022/08/15 08:57:47;;;;;;;10.98;4.63;;;;;;;21.57;79.83;100463.31;5052082;28;20040;-75
2022/08/15 09:00:19;;;;;;;13.27;5.63;;;;;;;21.48;80.87;100474.41;5053433;28;20033;-75
2022/08/15 09:02:56;;;;;;;8.48;5.72;;;;;;;21.44;81.88;100467.78;5056111;28;20025;-76
2022/08/15 09:05:42;;;;;;;21.13;6.20;;;;;;;21.39;82.74;100477.59;5055781;28;20036;-76
2022/08/15 09:08:14;;;;;;;15.52;6.57;;;;;;;21.40;82.98;100469.25;5055921;28;20025;-75
2022/08/15 09:10:45;;;;;;;12.85;5.88;;;;;;;21.41;83.63;100470.09;5054330;28;20039;-76
2022/08/15 09:15:57;;;;;;;12.15;6.90;;;;;;;21.45;83.94;100474.00;5055894;28;20048;-76
2022/08/15 09:18:30;;;;;;;13.65;7.00;;;;;;;21.54;83.88;100474.59;5055729;28;20037;-76
2022/08/15 09:20:57;;;;;;;14.10;7.25;;;;;;;21.69;83.47;100464.28;5055789;28;20029;-74
2022/08/15 09:23:23;;;;;;;13.55;7.38;;;;;;;21.91;82.08;100472.81;5055995;28;20442;-76
2022/08/15 09:26:19;;;;;;;18.25;8.52;;;;;;;22.19;80.05;100468.78;5055902;28;20061;-74
2022/08/15 09:29:07;;;;;;;12.30;6.90;;;;;;;22.56;79.72;100474.22;5055756;28;20043;-76
2022/08/15 09:31:40;;;;;;;17.42;9.00;;;;;;;23.30;75.32;100470.53;5044783;28;20033;-74
2022/08/15 09:34:26;;;;;;;12.35;8.10;;;;;;;24.92;70.10;100468.19;5055449;28;20053;-74
2022/08/15 09:36:57;;;;;;;13.25;7.35;;;;;;;26.73;61.65;100472.56;5055688;28;20421;-75
2022/08/15 09:39:32;;;;;;;15.25;7.40;;;;;;;27.61;56.19;100465.22;5055915;28;20029;-75
2022/08/15 09:42:41;;;;;;;12.23;7.28;;;;;;;27.25;57.95;100467.66;5055443;28;20126;-74
2022/08/15 09:45:41;;;;;;;15.95;7.88;;;;;;;26.74;60.06;100476.16;5041925;28;20057;-74
2022/08/15 09:48:28;;;;;;;15.65;7.53;;;;;;;26.40;60.55;100476.25;5055177;28;20032;-74
2022/08/15 09:50:57;;;;;;;14.73;8.30;;;;;;;26.34;60.29;100472.63;5055279;28;20481;-74
2022/08/15 09:53:31;;;;;;;16.17;7.60;;;;;;;26.97;58.69;100479.66;5055152;28;20501;-79
2022/08/15 09:56:04;;;;;;;13.88;7.30;;;;;;;27.77;56.81;100477.09;5055222;28;20060;-75
2022/08/15 09:58:35;;;;;;;12.95;6.80;;;;;;;28.95;52.40;100471.41;5055367;28;20029;-75
2022/08/15 10:01:08;;;;;;;10.68;6.25;;;;;;;30.21;48.19;100472.72;5054922;28;20029;-74
2022/08/15 10:03:45;;;;;;;15.75;7.45;;;;;;;30.53;46.63;100471.50;5055040;28;20459;-75
2022/08/15 10:06:23;;;;;;;14.02;6.70;;;;;;;29.71;45.55;100473.34;5054599;28;20025;-74
2022/08/15 10:08:54;;;;;;;10.05;6.00;;;;;;;28.37;48.40;100476.94;5054725;28;20483;-73
2022/08/15 10:11:41;;;;;;;13.13;6.47;;;;;;;27.25;51.28;100484.03;5054149;28;20079;-75
2022/08/15 10:14:25;;;;;;;13.23;6.25;;;;;;;26.83;52.23;100477.34;5054744;28;20047;-74
2022/08/15 10:16:52;;;;;;;16.75;5.70;;;;;;;26.38;53.68;100479.25;5054680;28;20036;-75
2022/08/15 10:19:38;;;;;;;9.48;6.05;;;;;;;26.02;55.74;100480.63;5054874;28;20380;-76
2022/08/15 10:22:22;;;;;;;9.23;7.07;;;;;;;25.77;57.63;100490.06;5055070;28;20033;-75
2022/08/15 10:25:18;;;;;;;8.63;7.05;;;;;;;25.54;59.65;100484.78;5054717;28;20033;-75
2022/08/15 10:27:59;;;;;;;13.00;7.85;;;;;;;25.43;61.50;100486.53;5054512;28;20477;-76
2022/08/15 10:30:30;;;;;;;12.30;8.00;;;;;;;25.33;61.86;100481.72;5054887;28;20033;-76
2022/08/15 10:32:56;;;;;;;13.18;7.15;;;;;;;25.51;61.47;100483.38;5054532;28;20036;-77
2022/08/15 10:35:36;;;;;;;12.80;8.25;;;;;;;25.66;62.04;100480.06;5054549;28;20035;-78
2022/08/15 10:38:07;;;;;;;16.80;8.23;;;;;;;25.90;60.77;100485.34;5054496;28;20466;-77
2022/08/15 10:40:53;;;;;;;12.57;7.45;;;;;;;26.15;60.15;100493.09;5054677;28;20037;-77
2022/08/15 10:43:46;;;;;;;13.63;7.82;;;;;;;26.48;59.07;100491.34;5054321;28;20055;-78
2022/08/15 10:46:38;;;;;;;11.02;7.57;;;;;;;26.95;57.01;100490.00;5054500;28;20040;-76
2022/08/15 10:49:27;;;;;;;10.23;6.35;;;;;;;27.78;54.22;100493.25;5013495;28;20040;-78
2022/08/15 10:52:31;;;;;;;9.40;6.32;;;;;;;28.38;52.60;100494.97;5036800;28;20029;-75
2022/08/15 10:55:05;;;;;;;9.88;6.00;;;;;;;30.48;46.14;100493.50;5054376;28;20036;-75
2022/08/15 10:57:50;;;;;;;12.88;6.03;;;;;;;31.64;43.15;100482.06;5054077;28;20033;-78
2022/08/15 11:00:33;;;;;;;10.90;6.70;;;;;;;32.14;41.09;100490.09;5054057;28;20060;-74
2022/08/15 11:03:02;;;;;;;18.75;6.78;;;;;;;32.52;40.31;100468.16;5053735;28;20536;-75
2022/08/15 11:05:28;;;;;;;16.77;7.45;;;;;;;31.93;41.05;100474.91;5053645;28;20471;-75
2022/08/15 11:07:55;;;;;;;11.13;6.47;;;;;;;30.55;43.80;100481.09;5054298;28;20131;-75
2022/08/15 11:10:24;;;;;;;11.38;6.82;;;;;;;29.48;47.60;100482.94;5053444;28;20371;-74
2022/08/15 11:12:54;;;;;;;10.60;6.47;;;;;;;28.64;49.67;100485.00;5053446;28;20036;-75
2022/08/15 11:15:25;;;;;;;14.95;6.90;;;;;;;28.25;50.15;100488.09;5054250;28;20374;-74
2022/08/15 11:18:04;;;;;;;13.23;6.32;;;;;;;27.79;52.07;100485.84;5053938;28;20025;-74
2022/08/15 11:20:38;;;;;;;10.38;5.32;;;;;;;27.73;51.81;100487.72;5053946;28;20123;-74
2022/08/15 11:23:04;;;;;;;10.40;5.10;;;;;;;27.51;50.48;100487.00;5052783;28;20025;-74
2022/08/15 11:25:35;;;;;;;9.18;5.30;;;;;;;27.30;50.82;100486.78;5052140;28;20044;-76
2022/08/15 11:28:10;;;;;;;7.97;4.68;;;;;;;27.09;50.94;100496.69;5053154;28;20556;-76
2022/08/15 11:30:37;;;;;;;11.18;5.05;;;;;;;26.98;52.29;100492.25;5053999;28;20120;-81
2022/08/15 11:33:41;;;;;;;12.15;4.80;;;;;;;26.91;52.32;100500.63;5053379;28;20128;-76
2022/08/15 11:36:16;;;;;;;10.88;5.07;;;;;;;26.70;53.33;100499.56;5011873;28;20047;-75
2022/08/15 11:38:46;;;;;;;12.98;5.68;;;;;;;26.63;54.74;100509.81;5053291;28;20033;-76
2022/08/15 11:41:29;;;;;;;8.80;5.90;;;;;;;26.60;54.90;100504.84;5053319;28;20475;-77
2022/08/15 11:43:58;;;;;;;11.93;6.18;;;;;;;26.48;55.59;100513.97;5053813;28;20048;-79
2022/08/15 11:46:25;;;;;;;9.60;5.90;;;;;;;26.36;56.01;100510.56;5052863;28;20451;-75
2022/08/15 11:48:59;;;;;;;16.05;5.75;;;;;;;26.12;56.83;100510.78;5052694;28;20024;-75
2022/08/15 11:51:33;;;;;;;11.35;5.90;;;;;;;25.98;56.75;100515.72;5053108;28;20128;-77
2022/08/15 11:54:15;;;;;;;12.05;6.55;;;;;;;25.81;57.49;100510.31;5052517;28;20059;-77
2022/08/15 11:56:54;;;;;;;16.88;6.60;;;;;;;25.74;57.81;100515.09;5052170;28;20052;-79